sensor_id;sensor_type;location;lat;lon;timestamp;P1;durP1;ratioP1;P2;durP2;ratioP2
76599;SDS011;65489;52.048;6.090;2023-02-24T00:01:32;1.65;;;0.70;;
76599;SDS011;65489;52.048;6.090;2023-02-24T00:04:05;1.13;;;0.60;;
76599;SDS011;65489;52.048;6.090;2023-02-24T00:06:33;2.10;;;0.60;;
76599;SDS011;65489;52.048;6.090;2023-02-24T00:09:11;1.27;;;0.57;;
76599;SDS011;65489;52.048;6.090;2023-02-24T00:12:24;1.60;;;0.73;;
76599;SDS011;65489;52.048;6.090;2023-02-24T00:14:31;1.40;;;0.65;;
76599;SDS011;65489;52.048;6.090;2023-02-24T00:16:58;2.60;;;0.70;;
76599;SDS011;65489;52.048;6.090;2023-02-24T00:19:25;1.25;;;0.70;;
76599;SDS011;65489;52.048;6.090;2023-02-24T00:21:52;2.38;;;0.70;;
76599;SDS011;65489;52.048;6.090;2023-02-24T00:24:18;2.00;;;0.68;;
76599;SDS011;65489;52.048;6.090;2023-02-24T00:26:45;1.08;;;0.60;;
76599;SDS011;65489;52.048;6.090;2023-02-24T00:29:15;1.30;;;0.60;;
76599;SDS011;65489;52.048;6.090;2023-02-24T00:31:40;1.52;;;0.55;;
76599;SDS011;65489;52.048;6.090;2023-02-24T00:34:07;1.85;;;0.60;;
76599;SDS011;65489;52.048;6.090;2023-02-24T00:36:33;1.15;;;0.60;;
76599;SDS011;65489;52.048;6.090;2023-02-24T00:39:00;0.80;;;0.50;;
76599;SDS011;65489;52.048;6.090;2023-02-24T00:41:30;1.80;;;0.70;;
76599;SDS011;65489;52.048;6.090;2023-02-24T00:43:58;1.67;;;0.70;;
76599;SDS011;65489;52.048;6.090;2023-02-24T00:46:31;2.60;;;0.70;;
76599;SDS011;65489;52.048;6.090;2023-02-24T00:51:29;1.17;;;0.40;;
76599;SDS011;65489;52.048;6.090;2023-02-24T00:54:01;2.55;;;0.60;;
76599;SDS011;65489;52.048;6.090;2023-02-24T00:56:27;2.10;;;0.60;;
76599;SDS011;65489;52.048;6.090;2023-02-24T00:58:53;1.35;;;0.65;;
76599;SDS011;65489;52.048;6.090;2023-02-24T01:01:21;1.30;;;0.70;;
76599;SDS011;65489;52.048;6.090;2023-02-24T01:03:51;1.05;;;0.40;;
76599;SDS011;65489;52.048;6.090;2023-02-24T01:06:21;1.70;;;0.50;;
76599;SDS011;65489;52.048;6.090;2023-02-24T01:08:49;1.95;;;0.50;;
76599;SDS011;65489;52.048;6.090;2023-02-24T01:11:17;1.95;;;0.73;;
76599;SDS011;65489;52.048;6.090;2023-02-24T01:14:04;1.65;;;0.82;;
76599;SDS011;65489;52.048;6.090;2023-02-24T01:16:33;1.23;;;0.60;;
76599;SDS011;65489;52.048;6.090;2023-02-24T01:18:59;1.40;;;0.60;;
76599;SDS011;65489;52.048;6.090;2023-02-24T01:21:25;1.33;;;0.50;;
76599;SDS011;65489;52.048;6.090;2023-02-24T01:23:51;2.05;;;0.63;;
76599;SDS011;65489;52.048;6.090;2023-02-24T01:26:17;1.42;;;0.60;;
76599;SDS011;65489;52.048;6.090;2023-02-24T01:28:44;1.58;;;0.50;;
76599;SDS011;65489;52.048;6.090;2023-02-24T01:31:13;1.65;;;0.60;;
76599;SDS011;65489;52.048;6.090;2023-02-24T01:33:50;0.82;;;0.50;;
76599;SDS011;65489;52.048;6.090;2023-02-24T01:36:20;1.27;;;0.57;;
76599;SDS011;65489;52.048;6.090;2023-02-24T01:38:47;1.30;;;0.50;;
76599;SDS011;65489;52.048;6.090;2023-02-24T01:41:31;1.70;;;0.52;;
76599;SDS011;65489;52.048;6.090;2023-02-24T01:43:58;1.58;;;0.52;;
76599;SDS011;65489;52.048;6.090;2023-02-24T01:46:36;1.15;;;0.47;;
76599;SDS011;65489;52.048;6.090;2023-02-24T01:52:12;1.30;;;0.52;;
76599;SDS011;65489;52.048;6.090;2023-02-24T01:54:52;1.02;;;0.45;;
76599;SDS011;65489;52.048;6.090;2023-02-24T01:57:38;0.95;;;0.40;;
76599;SDS011;65489;52.048;6.090;2023-02-24T02:00:04;1.40;;;0.60;;
76599;SDS011;65489;52.048;6.090;2023-02-24T02:02:55;1.15;;;0.45;;
76599;SDS011;65489;52.048;6.090;2023-02-24T02:05:21;2.35;;;0.60;;
76599;SDS011;65489;52.048;6.090;2023-02-24T02:07:47;0.85;;;0.45;;
76599;SDS011;65489;52.048;6.090;2023-02-24T02:10:16;1.92;;;0.68;;
76599;SDS011;65489;52.048;6.090;2023-02-24T02:12:42;1.85;;;0.50;;
76599;SDS011;65489;52.048;6.090;2023-02-24T02:15:09;0.70;;;0.40;;
76599;SDS011;65489;52.048;6.090;2023-02-24T02:37:30;2.13;;;0.60;;
76599;SDS011;65489;52.048;6.090;2023-02-24T02:42:46;0.90;;;0.45;;
76599;SDS011;65489;52.048;6.090;2023-02-24T02:50:58;1.20;;;0.40;;
76599;SDS011;65489;52.048;6.090;2023-02-24T02:56:16;1.17;;;0.40;;
76599;SDS011;65489;52.048;6.090;2023-02-24T02:58:50;2.45;;;0.60;;
76599;SDS011;65489;52.048;6.090;2023-02-24T03:01:18;0.90;;;0.38;;
76599;SDS011;65489;52.048;6.090;2023-02-24T03:03:46;1.40;;;0.50;;
76599;SDS011;65489;52.048;6.090;2023-02-24T03:06:28;2.85;;;0.55;;
76599;SDS011;65489;52.048;6.090;2023-02-24T03:08:57;2.22;;;0.70;;
76599;SDS011;65489;52.048;6.090;2023-02-24T03:11:25;1.77;;;0.60;;
76599;SDS011;65489;52.048;6.090;2023-02-24T03:13:52;1.30;;;0.70;;
76599;SDS011;65489;52.048;6.090;2023-02-24T03:16:20;3.13;;;0.70;;
76599;SDS011;65489;52.048;6.090;2023-02-24T03:18:50;1.65;;;0.50;;
76599;SDS011;65489;52.048;6.090;2023-02-24T03:23:48;1.58;;;0.45;;
76599;SDS011;65489;52.048;6.090;2023-02-24T03:29:01;1.98;;;0.63;;
76599;SDS011;65489;52.048;6.090;2023-02-24T03:36:39;1.20;;;0.43;;
76599;SDS011;65489;52.048;6.090;2023-02-24T03:39:05;0.63;;;0.40;;
76599;SDS011;65489;52.048;6.090;2023-02-24T03:41:39;1.42;;;0.40;;
76599;SDS011;65489;52.048;6.090;2023-02-24T03:44:09;1.75;;;0.57;;
76599;SDS011;65489;52.048;6.090;2023-02-24T03:46:36;0.95;;;0.40;;
76599;SDS011;65489;52.048;6.090;2023-02-24T03:49:10;2.35;;;0.40;;
76599;SDS011;65489;52.048;6.090;2023-02-24T03:51:37;1.30;;;0.47;;
76599;SDS011;65489;52.048;6.090;2023-02-24T03:54:13;0.63;;;0.35;;
76599;SDS011;65489;52.048;6.090;2023-02-24T04:02:16;0.93;;;0.35;;
76599;SDS011;65489;52.048;6.090;2023-02-24T04:04:51;1.48;;;0.47;;
76599;SDS011;65489;52.048;6.090;2023-02-24T04:13:08;0.80;;;0.43;;
76599;SDS011;65489;52.048;6.090;2023-02-24T04:15:53;1.17;;;0.40;;
76599;SDS011;65489;52.048;6.090;2023-02-24T04:18:24;0.60;;;0.30;;
76599;SDS011;65489;52.048;6.090;2023-02-24T04:20:52;1.10;;;0.43;;
76599;SDS011;65489;52.048;6.090;2023-02-24T04:23:22;0.90;;;0.40;;
76599;SDS011;65489;52.048;6.090;2023-02-24T04:25:52;2.10;;;0.30;;
76599;SDS011;65489;52.048;6.090;2023-02-24T04:28:20;2.10;;;0.63;;
76599;SDS011;65489;52.048;6.090;2023-02-24T04:30:49;1.10;;;0.40;;
76599;SDS011;65489;52.048;6.090;2023-02-24T04:33:18;1.02;;;0.43;;
76599;SDS011;65489;52.048;6.090;2023-02-24T04:35:44;0.70;;;0.40;;
76599;SDS011;65489;52.048;6.090;2023-02-24T04:38:10;0.85;;;0.52;;
76599;SDS011;65489;52.048;6.090;2023-02-24T04:40:36;2.80;;;0.50;;
76599;SDS011;65489;52.048;6.090;2023-02-24T04:43:04;0.73;;;0.38;;
76599;SDS011;65489;52.048;6.090;2023-02-24T04:45:30;0.80;;;0.38;;
76599;SDS011;65489;52.048;6.090;2023-02-24T04:47:57;1.77;;;0.50;;
76599;SDS011;65489;52.048;6.090;2023-02-24T04:50:30;1.40;;;0.50;;
76599;SDS011;65489;52.048;6.090;2023-02-24T04:52:59;0.77;;;0.40;;
76599;SDS011;65489;52.048;6.090;2023-02-24T04:55:26;1.40;;;0.30;;
76599;SDS011;65489;52.048;6.090;2023-02-24T04:58:02;1.40;;;0.40;;
76599;SDS011;65489;52.048;6.090;2023-02-24T05:00:28;1.90;;;0.60;;
76599;SDS011;65489;52.048;6.090;2023-02-24T05:03:00;0.98;;;0.50;;
76599;SDS011;65489;52.048;6.090;2023-02-24T05:05:27;1.38;;;0.40;;
76599;SDS011;65489;52.048;6.090;2023-02-24T05:07:53;1.30;;;0.50;;
76599;SDS011;65489;52.048;6.090;2023-02-24T05:10:22;0.70;;;0.40;;
76599;SDS011;65489;52.048;6.090;2023-02-24T05:12:55;1.35;;;0.60;;
76599;SDS011;65489;52.048;6.090;2023-02-24T05:15:25;1.20;;;0.40;;
76599;SDS011;65489;52.048;6.090;2023-02-24T05:18:03;1.27;;;0.40;;
76599;SDS011;65489;52.048;6.090;2023-02-24T05:20:35;0.98;;;0.30;;
76599;SDS011;65489;52.048;6.090;2023-02-24T05:23:25;0.70;;;0.47;;
76599;SDS011;65489;52.048;6.090;2023-02-24T05:25:58;1.27;;;0.45;;
76599;SDS011;65489;52.048;6.090;2023-02-24T05:28:25;1.10;;;0.47;;
76599;SDS011;65489;52.048;6.090;2023-02-24T05:30:51;0.90;;;0.45;;
76599;SDS011;65489;52.048;6.090;2023-02-24T05:35:48;1.52;;;0.50;;
76599;SDS011;65489;52.048;6.090;2023-02-24T05:38:17;1.77;;;0.50;;
76599;SDS011;65489;52.048;6.090;2023-02-24T05:40:45;0.73;;;0.30;;
76599;SDS011;65489;52.048;6.090;2023-02-24T05:43:14;0.70;;;0.30;;
76599;SDS011;65489;52.048;6.090;2023-02-24T05:45:45;1.00;;;0.32;;
76599;SDS011;65489;52.048;6.090;2023-02-24T05:48:11;1.75;;;0.50;;
76599;SDS011;65489;52.048;6.090;2023-02-24T05:50:39;1.08;;;0.38;;
76599;SDS011;65489;52.048;6.090;2023-02-24T05:53:10;1.00;;;0.40;;
76599;SDS011;65489;52.048;6.090;2023-02-24T05:55:36;0.60;;;0.32;;
76599;SDS011;65489;52.048;6.090;2023-02-24T05:58:01;0.90;;;0.45;;
76599;SDS011;65489;52.048;6.090;2023-02-24T06:00:31;1.20;;;0.32;;
76599;SDS011;65489;52.048;6.090;2023-02-24T06:02:57;1.17;;;0.35;;
76599;SDS011;65489;52.048;6.090;2023-02-24T06:05:32;0.80;;;0.40;;
76599;SDS011;65489;52.048;6.090;2023-02-24T06:07:59;1.52;;;0.60;;
76599;SDS011;65489;52.048;6.090;2023-02-24T06:10:29;1.40;;;0.40;;
76599;SDS011;65489;52.048;6.090;2023-02-24T06:12:57;0.82;;;0.43;;
76599;SDS011;65489;52.048;6.090;2023-02-24T06:15:22;0.82;;;0.22;;
76599;SDS011;65489;52.048;6.090;2023-02-24T06:17:48;0.85;;;0.50;;
76599;SDS011;65489;52.048;6.090;2023-02-24T06:20:13;0.82;;;0.35;;
76599;SDS011;65489;52.048;6.090;2023-02-24T06:22:40;1.40;;;0.47;;
76599;SDS011;65489;52.048;6.090;2023-02-24T06:25:07;1.15;;;0.40;;
76599;SDS011;65489;52.048;6.090;2023-02-24T06:27:33;1.25;;;0.50;;
76599;SDS011;65489;52.048;6.090;2023-02-24T06:30:00;1.23;;;0.45;;
76599;SDS011;65489;52.048;6.090;2023-02-24T06:32:26;1.02;;;0.45;;
76599;SDS011;65489;52.048;6.090;2023-02-24T06:34:52;0.50;;;0.30;;
76599;SDS011;65489;52.048;6.090;2023-02-24T06:37:18;0.60;;;0.40;;
76599;SDS011;65489;52.048;6.090;2023-02-24T06:39:44;0.82;;;0.45;;
76599;SDS011;65489;52.048;6.090;2023-02-24T06:42:09;1.15;;;0.43;;
76599;SDS011;65489;52.048;6.090;2023-02-24T06:44:37;0.90;;;0.60;;
76599;SDS011;65489;52.048;6.090;2023-02-24T06:47:04;1.23;;;0.45;;
76599;SDS011;65489;52.048;6.090;2023-02-24T06:49:31;0.65;;;0.20;;
76599;SDS011;65489;52.048;6.090;2023-02-24T06:51:57;1.10;;;0.40;;
76599;SDS011;65489;52.048;6.090;2023-02-24T06:54:23;1.83;;;0.50;;
76599;SDS011;65489;52.048;6.090;2023-02-24T06:56:59;0.80;;;0.45;;
76599;SDS011;65489;52.048;6.090;2023-02-24T06:59:27;1.98;;;0.35;;
76599;SDS011;65489;52.048;6.090;2023-02-24T07:01:54;1.70;;;0.50;;
76599;SDS011;65489;52.048;6.090;2023-02-24T07:04:20;0.73;;;0.40;;
76599;SDS011;65489;52.048;6.090;2023-02-24T07:06:53;1.30;;;0.40;;
76599;SDS011;65489;52.048;6.090;2023-02-24T07:09:21;0.75;;;0.40;;
76599;SDS011;65489;52.048;6.090;2023-02-24T07:11:48;0.93;;;0.43;;
76599;SDS011;65489;52.048;6.090;2023-02-24T07:14:17;2.15;;;0.52;;
76599;SDS011;65489;52.048;6.090;2023-02-24T07:16:47;1.00;;;0.50;;
76599;SDS011;65489;52.048;6.090;2023-02-24T07:19:18;0.82;;;0.40;;
76599;SDS011;65489;52.048;6.090;2023-02-24T07:21:44;1.95;;;0.40;;
76599;SDS011;65489;52.048;6.090;2023-02-24T07:24:24;0.65;;;0.50;;
76599;SDS011;65489;52.048;6.090;2023-02-24T07:27:01;0.80;;;0.40;;
76599;SDS011;65489;52.048;6.090;2023-02-24T07:29:31;0.70;;;0.40;;
76599;SDS011;65489;52.048;6.090;2023-02-24T07:31:58;0.90;;;0.50;;
76599;SDS011;65489;52.048;6.090;2023-02-24T07:36:53;1.50;;;0.30;;
76599;SDS011;65489;52.048;6.090;2023-02-24T07:39:20;1.17;;;0.50;;
76599;SDS011;65489;52.048;6.090;2023-02-24T07:41:47;1.80;;;0.40;;
76599;SDS011;65489;52.048;6.090;2023-02-24T07:44:14;0.85;;;0.30;;
76599;SDS011;65489;52.048;6.090;2023-02-24T07:46:41;1.05;;;0.40;;
76599;SDS011;65489;52.048;6.090;2023-02-24T07:49:08;1.15;;;0.47;;
76599;SDS011;65489;52.048;6.090;2023-02-24T07:51:37;0.50;;;0.30;;
76599;SDS011;65489;52.048;6.090;2023-02-24T07:54:02;2.25;;;0.60;;
76599;SDS011;65489;52.048;6.090;2023-02-24T07:56:29;1.30;;;0.50;;
76599;SDS011;65489;52.048;6.090;2023-02-24T07:59:01;0.98;;;0.50;;
76599;SDS011;65489;52.048;6.090;2023-02-24T08:01:33;1.00;;;0.50;;
76599;SDS011;65489;52.048;6.090;2023-02-24T08:04:13;1.35;;;0.60;;
76599;SDS011;65489;52.048;6.090;2023-02-24T08:06:43;2.15;;;0.50;;
76599;SDS011;65489;52.048;6.090;2023-02-24T08:09:10;1.30;;;0.40;;
76599;SDS011;65489;52.048;6.090;2023-02-24T08:11:48;0.93;;;0.50;;
76599;SDS011;65489;52.048;6.090;2023-02-24T08:14:19;1.30;;;0.50;;
76599;SDS011;65489;52.048;6.090;2023-02-24T08:16:52;0.90;;;0.38;;
76599;SDS011;65489;52.048;6.090;2023-02-24T08:19:23;1.92;;;0.45;;
76599;SDS011;65489;52.048;6.090;2023-02-24T08:21:57;2.00;;;0.40;;
76599;SDS011;65489;52.048;6.090;2023-02-24T08:24:47;1.33;;;0.40;;
76599;SDS011;65489;52.048;6.090;2023-02-24T08:27:16;1.58;;;0.38;;
76599;SDS011;65489;52.048;6.090;2023-02-24T08:29:47;2.33;;;0.60;;
76599;SDS011;65489;52.048;6.090;2023-02-24T08:32:23;3.03;;;0.52;;
76599;SDS011;65489;52.048;6.090;2023-02-24T08:35:05;1.35;;;0.55;;
76599;SDS011;65489;52.048;6.090;2023-02-24T08:37:38;2.35;;;0.30;;
76599;SDS011;65489;52.048;6.090;2023-02-24T08:43:05;2.03;;;0.70;;
76599;SDS011;65489;52.048;6.090;2023-02-24T08:45:45;1.58;;;0.60;;
76599;SDS011;65489;52.048;6.090;2023-02-24T08:48:17;2.58;;;0.73;;
76599;SDS011;65489;52.048;6.090;2023-02-24T08:51:01;1.80;;;0.70;;
76599;SDS011;65489;52.048;6.090;2023-02-24T08:53:31;1.60;;;0.90;;
76599;SDS011;65489;52.048;6.090;2023-02-24T08:55:58;1.83;;;0.60;;
76599;SDS011;65489;52.048;6.090;2023-02-24T08:58:24;2.40;;;0.70;;
76599;SDS011;65489;52.048;6.090;2023-02-24T09:00:55;1.90;;;0.68;;
76599;SDS011;65489;52.048;6.090;2023-02-24T09:03:27;3.40;;;1.08;;
76599;SDS011;65489;52.048;6.090;2023-02-24T09:08:29;2.35;;;0.73;;
76599;SDS011;65489;52.048;6.090;2023-02-24T09:11:00;3.40;;;0.82;;
76599;SDS011;65489;52.048;6.090;2023-02-24T09:13:26;3.10;;;1.10;;
76599;SDS011;65489;52.048;6.090;2023-02-24T09:16:01;5.32;;;1.20;;
76599;SDS011;65489;52.048;6.090;2023-02-24T09:18:27;2.38;;;0.90;;
76599;SDS011;65489;52.048;6.090;2023-02-24T09:21:09;2.05;;;0.68;;
76599;SDS011;65489;52.048;6.090;2023-02-24T09:24:01;3.35;;;1.10;;
76599;SDS011;65489;52.048;6.090;2023-02-24T09:26:32;4.97;;;1.27;;
76599;SDS011;65489;52.048;6.090;2023-02-24T09:29:10;3.15;;;1.10;;
76599;SDS011;65489;52.048;6.090;2023-02-24T09:31:57;3.80;;;0.80;;
76599;SDS011;65489;52.048;6.090;2023-02-24T09:34:35;3.10;;;1.02;;
76599;SDS011;65489;52.048;6.090;2023-02-24T09:37:13;3.92;;;1.23;;
76599;SDS011;65489;52.048;6.090;2023-02-24T09:39:51;3.75;;;1.00;;
76599;SDS011;65489;52.048;6.090;2023-02-24T09:42:20;3.85;;;1.05;;
76599;SDS011;65489;52.048;6.090;2023-02-24T09:44:51;4.15;;;1.13;;
76599;SDS011;65489;52.048;6.090;2023-02-24T09:47:25;4.97;;;1.25;;
76599;SDS011;65489;52.048;6.090;2023-02-24T09:52:51;2.47;;;1.20;;
76599;SDS011;65489;52.048;6.090;2023-02-24T09:55:39;2.40;;;0.85;;
76599;SDS011;65489;52.048;6.090;2023-02-24T10:07:14;3.35;;;1.00;;
76599;SDS011;65489;52.048;6.090;2023-02-24T10:09:53;3.83;;;1.05;;
76599;SDS011;65489;52.048;6.090;2023-02-24T10:12:45;4.85;;;1.52;;
76599;SDS011;65489;52.048;6.090;2023-02-24T10:15:16;5.10;;;1.80;;
76599;SDS011;65489;52.048;6.090;2023-02-24T10:17:51;2.33;;;0.80;;
76599;SDS011;65489;52.048;6.090;2023-02-24T10:20:20;5.07;;;1.15;;
76599;SDS011;65489;52.048;6.090;2023-02-24T10:27:50;4.10;;;1.10;;
76599;SDS011;65489;52.048;6.090;2023-02-24T10:33:10;2.95;;;1.05;;
76599;SDS011;65489;52.048;6.090;2023-02-24T10:35:42;4.60;;;1.17;;
76599;SDS011;65489;52.048;6.090;2023-02-24T10:38:07;3.42;;;1.13;;
76599;SDS011;65489;52.048;6.090;2023-02-24T10:40:45;2.85;;;0.90;;
76599;SDS011;65489;52.048;6.090;2023-02-24T10:43:21;4.00;;;1.02;;
76599;SDS011;65489;52.048;6.090;2023-02-24T10:45:54;3.97;;;1.15;;
76599;SDS011;65489;52.048;6.090;2023-02-24T10:48:31;12.10;;;1.52;;
76599;SDS011;65489;52.048;6.090;2023-02-24T10:51:07;5.10;;;1.33;;
76599;SDS011;65489;52.048;6.090;2023-02-24T10:54:01;3.28;;;1.17;;
76599;SDS011;65489;52.048;6.090;2023-02-24T10:57:02;3.45;;;1.15;;
76599;SDS011;65489;52.048;6.090;2023-02-24T10:59:50;5.15;;;1.42;;
76599;SDS011;65489;52.048;6.090;2023-02-24T11:02:36;7.57;;;1.35;;
76599;SDS011;65489;52.048;6.090;2023-02-24T11:05:36;5.93;;;1.38;;
76599;SDS011;65489;52.048;6.090;2023-02-24T11:08:20;3.87;;;1.17;;
76599;SDS011;65489;52.048;6.090;2023-02-24T11:11:19;3.42;;;1.30;;
76599;SDS011;65489;52.048;6.090;2023-02-24T11:14:00;4.97;;;1.20;;
76599;SDS011;65489;52.048;6.090;2023-02-24T11:16:46;3.75;;;1.42;;
76599;SDS011;65489;52.048;6.090;2023-02-24T11:19:40;2.95;;;1.13;;
76599;SDS011;65489;52.048;6.090;2023-02-24T11:22:14;4.80;;;1.42;;
76599;SDS011;65489;52.048;6.090;2023-02-24T11:24:44;6.82;;;1.30;;
76599;SDS011;65489;52.048;6.090;2023-02-24T11:27:10;4.85;;;1.20;;
76599;SDS011;65489;52.048;6.090;2023-02-24T11:35:10;2.78;;;1.05;;
76599;SDS011;65489;52.048;6.090;2023-02-24T11:37:40;4.80;;;1.15;;
76599;SDS011;65489;52.048;6.090;2023-02-24T11:42:38;3.25;;;1.13;;
76599;SDS011;65489;52.048;6.090;2023-02-24T11:45:14;5.03;;;1.45;;
76599;SDS011;65489;52.048;6.090;2023-02-24T11:47:48;3.00;;;1.00;;
76599;SDS011;65489;52.048;6.090;2023-02-24T11:52:53;4.00;;;1.45;;
76599;SDS011;65489;52.048;6.090;2023-02-24T11:55:37;2.70;;;1.05;;
76599;SDS011;65489;52.048;6.090;2023-02-24T11:58:16;2.78;;;1.13;;
76599;SDS011;65489;52.048;6.090;2023-02-24T12:06:13;3.55;;;1.33;;
76599;SDS011;65489;52.048;6.090;2023-02-24T12:08:44;3.92;;;1.30;;
76599;SDS011;65489;52.048;6.090;2023-02-24T12:11:18;5.13;;;1.20;;
76599;SDS011;65489;52.048;6.090;2023-02-24T12:16:47;4.22;;;1.10;;
76599;SDS011;65489;52.048;6.090;2023-02-24T12:19:32;3.58;;;1.13;;
76599;SDS011;65489;52.048;6.090;2023-02-24T12:22:03;2.70;;;0.85;;
76599;SDS011;65489;52.048;6.090;2023-02-24T12:24:34;3.38;;;1.10;;
76599;SDS011;65489;52.048;6.090;2023-02-24T12:29:58;2.72;;;0.90;;
76599;SDS011;65489;52.048;6.090;2023-02-24T12:32:45;2.00;;;0.77;;
76599;SDS011;65489;52.048;6.090;2023-02-24T12:35:34;2.83;;;1.02;;
76599;SDS011;65489;52.048;6.090;2023-02-24T12:44:01;3.15;;;0.80;;
76599;SDS011;65489;52.048;6.090;2023-02-24T12:46:35;3.03;;;0.88;;
76599;SDS011;65489;52.048;6.090;2023-02-24T12:51:41;4.00;;;0.80;;
76599;SDS011;65489;52.048;6.090;2023-02-24T12:55:00;3.30;;;1.00;;
76599;SDS011;65489;52.048;6.090;2023-02-24T13:00:26;1.15;;;0.73;;
76599;SDS011;65489;52.048;6.090;2023-02-24T13:06:05;4.30;;;0.80;;
76599;SDS011;65489;52.048;6.090;2023-02-24T13:11:41;2.35;;;0.90;;
76599;SDS011;65489;52.048;6.090;2023-02-24T13:14:13;2.83;;;0.93;;
76599;SDS011;65489;52.048;6.090;2023-02-24T13:16:43;2.45;;;0.88;;
76599;SDS011;65489;52.048;6.090;2023-02-24T13:19:19;3.55;;;0.80;;
76599;SDS011;65489;52.048;6.090;2023-02-24T13:22:06;3.77;;;1.00;;
76599;SDS011;65489;52.048;6.090;2023-02-24T13:24:33;2.45;;;0.90;;
76599;SDS011;65489;52.048;6.090;2023-02-24T13:27:06;3.13;;;0.98;;
76599;SDS011;65489;52.048;6.090;2023-02-24T13:29:48;3.38;;;0.80;;
76599;SDS011;65489;52.048;6.090;2023-02-24T13:32:35;2.20;;;0.70;;
76599;SDS011;65489;52.048;6.090;2023-02-24T13:35:44;2.92;;;0.80;;
76599;SDS011;65489;52.048;6.090;2023-02-24T13:37:51;1.55;;;0.70;;
76599;SDS011;65489;52.048;6.090;2023-02-24T13:45:22;1.70;;;0.90;;
76599;SDS011;65489;52.048;6.090;2023-02-24T13:55:39;3.28;;;1.05;;
76599;SDS011;65489;52.048;6.090;2023-02-24T14:01:14;2.03;;;0.70;;
76599;SDS011;65489;52.048;6.090;2023-02-24T14:03:42;1.35;;;0.80;;
76599;SDS011;65489;52.048;6.090;2023-02-24T14:06:14;2.67;;;0.80;;
76599;SDS011;65489;52.048;6.090;2023-02-24T14:08:54;3.75;;;1.02;;
76599;SDS011;65489;52.048;6.090;2023-02-24T14:11:22;2.35;;;0.80;;
76599;SDS011;65489;52.048;6.090;2023-02-24T14:13:53;2.50;;;0.85;;
76599;SDS011;65489;52.048;6.090;2023-02-24T14:16:28;2.17;;;0.90;;
76599;SDS011;65489;52.048;6.090;2023-02-24T14:18:58;3.25;;;0.90;;
76599;SDS011;65489;52.048;6.090;2023-02-24T14:21:29;3.65;;;0.90;;
76599;SDS011;65489;52.048;6.090;2023-02-24T14:24:00;2.83;;;0.57;;
76599;SDS011;65489;52.048;6.090;2023-02-24T14:26:42;1.98;;;0.70;;
76599;SDS011;65489;52.048;6.090;2023-02-24T14:29:09;3.08;;;0.63;;
76599;SDS011;65489;52.048;6.090;2023-02-24T14:31:35;1.85;;;0.70;;
76599;SDS011;65489;52.048;6.090;2023-02-24T14:34:02;1.38;;;0.60;;
76599;SDS011;65489;52.048;6.090;2023-02-24T14:36:36;2.72;;;0.75;;
76599;SDS011;65489;52.048;6.090;2023-02-24T14:39:18;2.03;;;0.50;;
76599;SDS011;65489;52.048;6.090;2023-02-24T14:42:08;1.35;;;0.50;;
76599;SDS011;65489;52.048;6.090;2023-02-24T14:44:39;1.77;;;0.52;;
76599;SDS011;65489;52.048;6.090;2023-02-24T14:47:10;4.10;;;0.70;;
76599;SDS011;65489;52.048;6.090;2023-02-24T14:49:38;2.08;;;0.50;;
76599;SDS011;65489;52.048;6.090;2023-02-24T14:53:06;1.67;;;0.60;;
76599;SDS011;65489;52.048;6.090;2023-02-24T14:55:09;4.03;;;1.15;;
76599;SDS011;65489;52.048;6.090;2023-02-24T15:00:26;1.48;;;0.65;;
76599;SDS011;65489;52.048;6.090;2023-02-24T15:05:54;0.98;;;0.40;;
76599;SDS011;65489;52.048;6.090;2023-02-24T15:11:09;1.80;;;0.60;;
76599;SDS011;65489;52.048;6.090;2023-02-24T15:13:53;1.42;;;0.60;;
76599;SDS011;65489;52.048;6.090;2023-02-24T15:16:21;2.97;;;0.50;;
76599;SDS011;65489;52.048;6.090;2023-02-24T15:18:52;2.05;;;0.63;;
76599;SDS011;65489;52.048;6.090;2023-02-24T15:21:20;2.35;;;0.80;;
76599;SDS011;65489;52.048;6.090;2023-02-24T15:29:39;2.42;;;0.50;;
76599;SDS011;65489;52.048;6.090;2023-02-24T15:32:09;1.60;;;0.50;;
76599;SDS011;65489;52.048;6.090;2023-02-24T15:34:42;3.28;;;0.70;;
76599;SDS011;65489;52.048;6.090;2023-02-24T15:37:22;3.08;;;0.77;;
76599;SDS011;65489;52.048;6.090;2023-02-24T15:40:04;2.63;;;0.77;;
76599;SDS011;65489;52.048;6.090;2023-02-24T15:42:32;1.30;;;0.50;;
76599;SDS011;65489;52.048;6.090;2023-02-24T15:45:06;1.42;;;0.65;;
76599;SDS011;65489;52.048;6.090;2023-02-24T15:47:49;2.77;;;0.70;;
76599;SDS011;65489;52.048;6.090;2023-02-24T15:50:17;2.58;;;0.60;;
76599;SDS011;65489;52.048;6.090;2023-02-24T15:52:43;1.77;;;0.40;;
76599;SDS011;65489;52.048;6.090;2023-02-24T15:55:15;1.38;;;0.45;;
76599;SDS011;65489;52.048;6.090;2023-02-24T15:57:41;1.85;;;0.50;;
76599;SDS011;65489;52.048;6.090;2023-02-24T16:00:07;1.55;;;0.60;;
76599;SDS011;65489;52.048;6.090;2023-02-24T16:02:37;3.90;;;0.90;;
76599;SDS011;65489;52.048;6.090;2023-02-24T16:05:03;1.85;;;0.60;;
76599;SDS011;65489;52.048;6.090;2023-02-24T16:07:29;1.73;;;0.60;;
76599;SDS011;65489;52.048;6.090;2023-02-24T16:09:56;2.55;;;0.75;;
76599;SDS011;65489;52.048;6.090;2023-02-24T16:12:25;1.83;;;0.50;;
76599;SDS011;65489;52.048;6.090;2023-02-24T16:14:58;1.60;;;0.50;;
76599;SDS011;65489;52.048;6.090;2023-02-24T16:19:53;1.23;;;0.45;;
76599;SDS011;65489;52.048;6.090;2023-02-24T16:22:21;1.88;;;0.50;;
76599;SDS011;65489;52.048;6.090;2023-02-24T16:24:47;0.85;;;0.45;;
76599;SDS011;65489;52.048;6.090;2023-02-24T16:27:16;1.23;;;0.40;;
76599;SDS011;65489;52.048;6.090;2023-02-24T16:29:43;1.90;;;0.60;;
76599;SDS011;65489;52.048;6.090;2023-02-24T16:32:12;1.50;;;0.60;;
76599;SDS011;65489;52.048;6.090;2023-02-24T16:37:09;1.30;;;0.40;;
76599;SDS011;65489;52.048;6.090;2023-02-24T16:39:43;1.55;;;0.47;;
76599;SDS011;65489;52.048;6.090;2023-02-24T16:42:09;2.33;;;0.68;;
76599;SDS011;65489;52.048;6.090;2023-02-24T16:44:35;0.95;;;0.40;;
76599;SDS011;65489;52.048;6.090;2023-02-24T16:47:00;1.48;;;0.50;;
76599;SDS011;65489;52.048;6.090;2023-02-24T16:49:26;0.88;;;0.47;;
76599;SDS011;65489;52.048;6.090;2023-02-24T16:51:52;1.23;;;0.40;;
76599;SDS011;65489;52.048;6.090;2023-02-24T16:54:17;1.45;;;0.60;;
76599;SDS011;65489;52.048;6.090;2023-02-24T16:56:46;1.60;;;0.40;;
76599;SDS011;65489;52.048;6.090;2023-02-24T16:59:12;1.48;;;0.45;;
76599;SDS011;65489;52.048;6.090;2023-02-24T17:01:37;1.33;;;0.60;;
76599;SDS011;65489;52.048;6.090;2023-02-24T17:04:04;2.17;;;0.57;;
76599;SDS011;65489;52.048;6.090;2023-02-24T17:06:32;1.23;;;0.40;;
76599;SDS011;65489;52.048;6.090;2023-02-24T17:08:57;0.85;;;0.35;;
76599;SDS011;65489;52.048;6.090;2023-02-24T17:11:23;1.27;;;0.40;;
76599;SDS011;65489;52.048;6.090;2023-02-24T17:13:49;0.75;;;0.30;;
76599;SDS011;65489;52.048;6.090;2023-02-24T17:16:15;1.58;;;0.40;;
76599;SDS011;65489;52.048;6.090;2023-02-24T17:18:40;2.65;;;0.40;;
76599;SDS011;65489;52.048;6.090;2023-02-24T17:21:06;2.20;;;0.60;;
76599;SDS011;65489;52.048;6.090;2023-02-24T17:23:31;1.65;;;0.40;;
76599;SDS011;65489;52.048;6.090;2023-02-24T17:25:58;1.05;;;0.30;;
76599;SDS011;65489;52.048;6.090;2023-02-24T17:28:25;3.13;;;0.85;;
76599;SDS011;65489;52.048;6.090;2023-02-24T17:30:51;2.35;;;0.55;;
76599;SDS011;65489;52.048;6.090;2023-02-24T17:33:16;0.85;;;0.40;;
76599;SDS011;65489;52.048;6.090;2023-02-24T17:35:42;2.25;;;0.40;;
76599;SDS011;65489;52.048;6.090;2023-02-24T17:38:11;1.67;;;0.50;;
76599;SDS011;65489;52.048;6.090;2023-02-24T17:40:38;1.20;;;0.40;;
76599;SDS011;65489;52.048;6.090;2023-02-24T17:43:04;2.45;;;0.63;;
76599;SDS011;65489;52.048;6.090;2023-02-24T17:45:30;2.00;;;0.40;;
76599;SDS011;65489;52.048;6.090;2023-02-24T17:47:55;1.67;;;0.40;;
76599;SDS011;65489;52.048;6.090;2023-02-24T17:50:21;1.35;;;0.50;;
76599;SDS011;65489;52.048;6.090;2023-02-24T17:52:46;3.17;;;0.65;;
76599;SDS011;65489;52.048;6.090;2023-02-24T17:55:12;1.90;;;0.70;;
76599;SDS011;65489;52.048;6.090;2023-02-24T17:57:38;3.58;;;0.60;;